sensor_id;sensor_type;location;lat;lon;timestamp;P1;durP1;ratioP1;P2;durP2;ratioP2
55254;SDS011;41118;44.634;11.182;2023-09-19T00:00:13;11.32;;;0.40;;
55254;SDS011;41118;44.634;11.182;2023-09-19T00:02:39;8.95;;;0.30;;
55254;SDS011;41118;44.634;11.182;2023-09-19T00:05:06;7.07;;;0.40;;
55254;SDS011;41118;44.634;11.182;2023-09-19T00:07:34;4.68;;;0.30;;
55254;SDS011;41118;44.634;11.182;2023-09-19T00:10:01;3.55;;;0.28;;
55254;SDS011;41118;44.634;11.182;2023-09-19T00:12:27;8.25;;;0.30;;
55254;SDS011;41118;44.634;11.182;2023-09-19T00:14:54;4.50;;;0.43;;
55254;SDS011;41118;44.634;11.182;2023-09-19T00:17:21;3.75;;;0.40;;
55254;SDS011;41118;44.634;11.182;2023-09-19T00:19:47;2.15;;;0.30;;
55254;SDS011;41118;44.634;11.182;2023-09-19T00:22:13;6.93;;;0.22;;
55254;SDS011;41118;44.634;11.182;2023-09-19T00:24:41;3.38;;;0.45;;
55254;SDS011;41118;44.634;11.182;2023-09-19T00:27:07;4.38;;;0.32;;
55254;SDS011;41118;44.634;11.182;2023-09-19T00:29:34;5.25;;;0.38;;
55254;SDS011;41118;44.634;11.182;2023-09-19T00:32:00;6.00;;;0.30;;
55254;SDS011;41118;44.634;11.182;2023-09-19T00:34:26;4.50;;;0.30;;
55254;SDS011;41118;44.634;11.182;2023-09-19T00:36:53;4.43;;;0.30;;
55254;SDS011;41118;44.634;11.182;2023-09-19T00:39:19;3.38;;;0.40;;
55254;SDS011;41118;44.634;11.182;2023-09-19T00:41:45;5.53;;;0.55;;
55254;SDS011;41118;44.634;11.182;2023-09-19T00:44:11;6.18;;;0.30;;
55254;SDS011;41118;44.634;11.182;2023-09-19T00:46:37;2.95;;;0.28;;
55254;SDS011;41118;44.634;11.182;2023-09-19T00:49:03;5.55;;;0.30;;
55254;SDS011;41118;44.634;11.182;2023-09-19T00:51:29;7.60;;;0.45;;
55254;SDS011;41118;44.634;11.182;2023-09-19T00:53:55;9.70;;;0.43;;
55254;SDS011;41118;44.634;11.182;2023-09-19T00:56:21;5.20;;;0.65;;
55254;SDS011;41118;44.634;11.182;2023-09-19T00:58:48;5.00;;;0.30;;
55254;SDS011;41118;44.634;11.182;2023-09-19T01:01:14;4.40;;;0.20;;
55254;SDS011;41118;44.634;11.182;2023-09-19T01:03:41;2.33;;;0.20;;
55254;SDS011;41118;44.634;11.182;2023-09-19T01:06:07;7.30;;;0.30;;
55254;SDS011;41118;44.634;11.182;2023-09-19T01:08:33;5.35;;;0.30;;
55254;SDS011;41118;44.634;11.182;2023-09-19T01:11:01;5.40;;;0.40;;
55254;SDS011;41118;44.634;11.182;2023-09-19T01:16:03;5.38;;;0.50;;
55254;SDS011;41118;44.634;11.182;2023-09-19T01:29:23;3.33;;;0.40;;
55254;SDS011;41118;44.634;11.182;2023-09-19T01:31:59;8.55;;;0.60;;
55254;SDS011;41118;44.634;11.182;2023-09-19T01:34:42;12.88;;;0.52;;
55254;SDS011;41118;44.634;11.182;2023-09-19T01:37:10;5.43;;;0.30;;
55254;SDS011;41118;44.634;11.182;2023-09-19T01:39:36;5.05;;;0.30;;
55254;SDS011;41118;44.634;11.182;2023-09-19T01:44:40;6.18;;;0.70;;
55254;SDS011;41118;44.634;11.182;2023-09-19T01:47:17;8.32;;;0.75;;
55254;SDS011;41118;44.634;11.182;2023-09-19T01:52:28;7.30;;;0.88;;
55254;SDS011;41118;44.634;11.182;2023-09-19T01:54:56;2.70;;;0.30;;
55254;SDS011;41118;44.634;11.182;2023-09-19T01:57:27;6.10;;;0.85;;
55254;SDS011;41118;44.634;11.182;2023-09-19T01:59:57;9.13;;;0.50;;
55254;SDS011;41118;44.634;11.182;2023-09-19T02:02:25;5.40;;;0.77;;
55254;SDS011;41118;44.634;11.182;2023-09-19T02:04:51;5.68;;;0.63;;
55254;SDS011;41118;44.634;11.182;2023-09-19T02:07:17;13.82;;;0.43;;
55254;SDS011;41118;44.634;11.182;2023-09-19T02:09:43;3.17;;;0.52;;
55254;SDS011;41118;44.634;11.182;2023-09-19T02:12:09;7.28;;;0.60;;
55254;SDS011;41118;44.634;11.182;2023-09-19T02:14:36;2.65;;;0.55;;
55254;SDS011;41118;44.634;11.182;2023-09-19T02:17:03;4.47;;;0.43;;
55254;SDS011;41118;44.634;11.182;2023-09-19T02:19:32;2.45;;;0.35;;
55254;SDS011;41118;44.634;11.182;2023-09-19T02:21:59;3.70;;;0.35;;
55254;SDS011;41118;44.634;11.182;2023-09-19T02:24:25;1.25;;;0.30;;
55254;SDS011;41118;44.634;11.182;2023-09-19T02:26:51;5.65;;;0.30;;
55254;SDS011;41118;44.634;11.182;2023-09-19T02:29:19;4.40;;;0.50;;
55254;SDS011;41118;44.634;11.182;2023-09-19T02:31:47;6.75;;;1.30;;
55254;SDS011;41118;44.634;11.182;2023-09-19T02:34:13;6.82;;;0.40;;
55254;SDS011;41118;44.634;11.182;2023-09-19T02:36:41;7.47;;;0.60;;
55254;SDS011;41118;44.634;11.182;2023-09-19T02:39:09;3.35;;;0.60;;
55254;SDS011;41118;44.634;11.182;2023-09-19T02:41:36;4.47;;;0.40;;
55254;SDS011;41118;44.634;11.182;2023-09-19T02:44:02;7.85;;;0.20;;
55254;SDS011;41118;44.634;11.182;2023-09-19T02:46:33;10.52;;;1.67;;
55254;SDS011;41118;44.634;11.182;2023-09-19T02:48:59;10.43;;;0.50;;
55254;SDS011;41118;44.634;11.182;2023-09-19T02:51:25;4.95;;;0.93;;
55254;SDS011;41118;44.634;11.182;2023-09-19T02:53:51;2.97;;;0.30;;
55254;SDS011;41118;44.634;11.182;2023-09-19T02:56:18;2.75;;;0.40;;
55254;SDS011;41118;44.634;11.182;2023-09-19T02:58:44;5.60;;;0.40;;
55254;SDS011;41118;44.634;11.182;2023-09-19T03:01:10;5.03;;;0.40;;
55254;SDS011;41118;44.634;11.182;2023-09-19T03:03:39;5.70;;;0.80;;
55254;SDS011;41118;44.634;11.182;2023-09-19T03:06:06;9.77;;;1.08;;
55254;SDS011;41118;44.634;11.182;2023-09-19T03:08:34;11.80;;;0.68;;
55254;SDS011;41118;44.634;11.182;2023-09-19T03:11:03;7.95;;;0.60;;
55254;SDS011;41118;44.634;11.182;2023-09-19T03:13:31;6.85;;;1.00;;
55254;SDS011;41118;44.634;11.182;2023-09-19T03:15:57;5.90;;;0.40;;
55254;SDS011;41118;44.634;11.182;2023-09-19T03:18:26;6.25;;;0.30;;
55254;SDS011;41118;44.634;11.182;2023-09-19T03:20:55;7.85;;;0.38;;
55254;SDS011;41118;44.634;11.182;2023-09-19T03:23:22;7.55;;;0.30;;
55254;SDS011;41118;44.634;11.182;2023-09-19T03:25:48;15.60;;;0.50;;
55254;SDS011;41118;44.634;11.182;2023-09-19T03:28:14;5.93;;;0.30;;
55254;SDS011;41118;44.634;11.182;2023-09-19T03:30:41;8.38;;;0.35;;
55254;SDS011;41118;44.634;11.182;2023-09-19T03:33:07;3.88;;;0.60;;
55254;SDS011;41118;44.634;11.182;2023-09-19T03:35:33;6.18;;;0.40;;
55254;SDS011;41118;44.634;11.182;2023-09-19T03:38:00;6.88;;;0.35;;
55254;SDS011;41118;44.634;11.182;2023-09-19T03:40:26;8.90;;;0.52;;
55254;SDS011;41118;44.634;11.182;2023-09-19T03:42:52;13.30;;;0.52;;
55254;SDS011;41118;44.634;11.182;2023-09-19T03:45:18;8.00;;;0.85;;
55254;SDS011;41118;44.634;11.182;2023-09-19T03:47:44;7.88;;;0.30;;
55254;SDS011;41118;44.634;11.182;2023-09-19T03:50:12;12.02;;;0.70;;
55254;SDS011;41118;44.634;11.182;2023-09-19T03:52:43;16.52;;;1.25;;
55254;SDS011;41118;44.634;11.182;2023-09-19T03:55:09;8.45;;;0.85;;
55254;SDS011;41118;44.634;11.182;2023-09-19T03:57:35;4.75;;;0.45;;
55254;SDS011;41118;44.634;11.182;2023-09-19T04:00:02;4.25;;;0.40;;
55254;SDS011;41118;44.634;11.182;2023-09-19T04:02:30;6.82;;;0.47;;
55254;SDS011;41118;44.634;11.182;2023-09-19T04:04:58;10.63;;;0.30;;
55254;SDS011;41118;44.634;11.182;2023-09-19T04:07:24;3.83;;;0.30;;
55254;SDS011;41118;44.634;11.182;2023-09-19T04:09:53;7.93;;;0.32;;
55254;SDS011;41118;44.634;11.182;2023-09-19T04:12:20;12.32;;;1.98;;
55254;SDS011;41118;44.634;11.182;2023-09-19T04:14:46;10.57;;;0.73;;
55254;SDS011;41118;44.634;11.182;2023-09-19T04:17:12;5.80;;;0.28;;
55254;SDS011;41118;44.634;11.182;2023-09-19T04:19:38;7.13;;;0.50;;
55254;SDS011;41118;44.634;11.182;2023-09-19T04:22:05;8.48;;;0.73;;
55254;SDS011;41118;44.634;11.182;2023-09-19T04:24:32;6.57;;;1.42;;
55254;SDS011;41118;44.634;11.182;2023-09-19T04:26:59;5.95;;;0.82;;
55254;SDS011;41118;44.634;11.182;2023-09-19T04:29:25;5.55;;;0.57;;
55254;SDS011;41118;44.634;11.182;2023-09-19T04:31:54;5.93;;;0.57;;
55254;SDS011;41118;44.634;11.182;2023-09-19T04:34:21;9.05;;;0.30;;
55254;SDS011;41118;44.634;11.182;2023-09-19T04:36:48;6.35;;;0.30;;
55254;SDS011;41118;44.634;11.182;2023-09-19T04:39:15;6.57;;;0.43;;
55254;SDS011;41118;44.634;11.182;2023-09-19T04:41:41;6.95;;;0.30;;
55254;SDS011;41118;44.634;11.182;2023-09-19T04:44:08;3.97;;;0.20;;
55254;SDS011;41118;44.634;11.182;2023-09-19T04:46:34;8.90;;;0.55;;
55254;SDS011;41118;44.634;11.182;2023-09-19T04:49:00;12.60;;;0.80;;
55254;SDS011;41118;44.634;11.182;2023-09-19T04:51:27;6.18;;;0.35;;
55254;SDS011;41118;44.634;11.182;2023-09-19T04:53:58;5.53;;;0.30;;
55254;SDS011;41118;44.634;11.182;2023-09-19T04:56:24;8.80;;;0.60;;
55254;SDS011;41118;44.634;11.182;2023-09-19T04:58:50;5.63;;;0.50;;
55254;SDS011;41118;44.634;11.182;2023-09-19T05:01:16;11.60;;;0.47;;
55254;SDS011;41118;44.634;11.182;2023-09-19T05:03:42;11.20;;;1.25;;
55254;SDS011;41118;44.634;11.182;2023-09-19T05:06:10;7.68;;;0.47;;
55254;SDS011;41118;44.634;11.182;2023-09-19T05:08:36;14.13;;;0.40;;
55254;SDS011;41118;44.634;11.182;2023-09-19T05:11:03;5.97;;;0.40;;
55254;SDS011;41118;44.634;11.182;2023-09-19T05:13:29;3.35;;;0.50;;
55254;SDS011;41118;44.634;11.182;2023-09-19T05:15:59;7.85;;;0.50;;
55254;SDS011;41118;44.634;11.182;2023-09-19T05:18:26;9.80;;;0.70;;
55254;SDS011;41118;44.634;11.182;2023-09-19T05:20:53;10.85;;;0.60;;
55254;SDS011;41118;44.634;11.182;2023-09-19T05:23:19;9.05;;;0.85;;
55254;SDS011;41118;44.634;11.182;2023-09-19T05:25:46;11.77;;;0.40;;
55254;SDS011;41118;44.634;11.182;2023-09-19T05:28:12;9.23;;;0.50;;
55254;SDS011;41118;44.634;11.182;2023-09-19T05:30:39;5.05;;;0.38;;
55254;SDS011;41118;44.634;11.182;2023-09-19T05:33:06;3.22;;;0.30;;
55254;SDS011;41118;44.634;11.182;2023-09-19T05:35:33;3.72;;;0.30;;
55254;SDS011;41118;44.634;11.182;2023-09-19T05:38:00;3.60;;;0.30;;
55254;SDS011;41118;44.634;11.182;2023-09-19T05:40:26;3.25;;;0.57;;
55254;SDS011;41118;44.634;11.182;2023-09-19T05:42:52;7.55;;;0.57;;
55254;SDS011;41118;44.634;11.182;2023-09-19T05:45:19;4.38;;;0.47;;
55254;SDS011;41118;44.634;11.182;2023-09-19T05:47:47;6.93;;;0.30;;
55254;SDS011;41118;44.634;11.182;2023-09-19T05:50:14;4.40;;;0.30;;
55254;SDS011;41118;44.634;11.182;2023-09-19T05:52:41;8.38;;;0.52;;
55254;SDS011;41118;44.634;11.182;2023-09-19T05:55:09;3.20;;;0.30;;
55254;SDS011;41118;44.634;11.182;2023-09-19T05:57:36;9.15;;;0.60;;
55254;SDS011;41118;44.634;11.182;2023-09-19T06:00:07;8.07;;;0.55;;
55254;SDS011;41118;44.634;11.182;2023-09-19T06:02:35;9.73;;;0.85;;
55254;SDS011;41118;44.634;11.182;2023-09-19T06:05:03;3.83;;;0.30;;
55254;SDS011;41118;44.634;11.182;2023-09-19T06:07:31;10.60;;;0.30;;
55254;SDS011;41118;44.634;11.182;2023-09-19T06:10:01;9.80;;;0.60;;
55254;SDS011;41118;44.634;11.182;2023-09-19T06:12:30;4.78;;;0.30;;
55254;SDS011;41118;44.634;11.182;2023-09-19T06:14:58;6.72;;;0.30;;
55254;SDS011;41118;44.634;11.182;2023-09-19T06:17:31;3.15;;;0.30;;
55254;SDS011;41118;44.634;11.182;2023-09-19T06:19:57;6.95;;;0.30;;
55254;SDS011;41118;44.634;11.182;2023-09-19T06:22:24;11.10;;;1.50;;
55254;SDS011;41118;44.634;11.182;2023-09-19T06:24:50;5.00;;;0.40;;
55254;SDS011;41118;44.634;11.182;2023-09-19T06:27:16;6.68;;;0.30;;
55254;SDS011;41118;44.634;11.182;2023-09-19T06:29:42;8.52;;;0.95;;
55254;SDS011;41118;44.634;11.182;2023-09-19T06:32:08;5.00;;;0.68;;
55254;SDS011;41118;44.634;11.182;2023-09-19T06:34:35;7.60;;;1.05;;
55254;SDS011;41118;44.634;11.182;2023-09-19T06:37:01;14.77;;;0.75;;
55254;SDS011;41118;44.634;11.182;2023-09-19T06:39:28;14.30;;;0.30;;
55254;SDS011;41118;44.634;11.182;2023-09-19T06:41:54;7.28;;;0.30;;
55254;SDS011;41118;44.634;11.182;2023-09-19T06:44:20;5.75;;;0.20;;
55254;SDS011;41118;44.634;11.182;2023-09-19T06:46:49;10.75;;;0.30;;
55254;SDS011;41118;44.634;11.182;2023-09-19T06:49:16;3.83;;;0.38;;
55254;SDS011;41118;44.634;11.182;2023-09-19T06:51:43;4.97;;;0.40;;
55254;SDS011;41118;44.634;11.182;2023-09-19T06:54:09;7.47;;;0.65;;
55254;SDS011;41118;44.634;11.182;2023-09-19T06:56:36;6.20;;;0.50;;
55254;SDS011;41118;44.634;11.182;2023-09-19T06:59:02;9.30;;;0.30;;
55254;SDS011;41118;44.634;11.182;2023-09-19T07:01:31;5.32;;;0.98;;
55254;SDS011;41118;44.634;11.182;2023-09-19T07:03:57;6.97;;;1.35;;
55254;SDS011;41118;44.634;11.182;2023-09-19T07:06:23;12.02;;;1.33;;
55254;SDS011;41118;44.634;11.182;2023-09-19T07:08:49;7.97;;;0.68;;
55254;SDS011;41118;44.634;11.182;2023-09-19T07:11:15;7.22;;;1.15;;
55254;SDS011;41118;44.634;11.182;2023-09-19T07:13:41;8.15;;;1.30;;
55254;SDS011;41118;44.634;11.182;2023-09-19T07:16:08;8.68;;;1.45;;
55254;SDS011;41118;44.634;11.182;2023-09-19T07:18:52;7.93;;;0.40;;
55254;SDS011;41118;44.634;11.182;2023-09-19T07:21:18;9.75;;;0.40;;
55254;SDS011;41118;44.634;11.182;2023-09-19T07:23:44;6.93;;;1.60;;
55254;SDS011;41118;44.634;11.182;2023-09-19T07:26:10;8.80;;;0.60;;
55254;SDS011;41118;44.634;11.182;2023-09-19T07:28:36;10.02;;;0.82;;
55254;SDS011;41118;44.634;11.182;2023-09-19T07:31:02;16.15;;;2.22;;
55254;SDS011;41118;44.634;11.182;2023-09-19T07:33:30;16.05;;;0.82;;
55254;SDS011;41118;44.634;11.182;2023-09-19T07:35:56;15.40;;;1.88;;
55254;SDS011;41118;44.634;11.182;2023-09-19T07:38:22;13.38;;;2.03;;
55254;SDS011;41118;44.634;11.182;2023-09-19T07:40:48;15.77;;;3.20;;
55254;SDS011;41118;44.634;11.182;2023-09-19T07:43:15;13.75;;;3.00;;
55254;SDS011;41118;44.634;11.182;2023-09-19T07:45:43;14.23;;;3.58;;
55254;SDS011;41118;44.634;11.182;2023-09-19T07:48:09;13.70;;;1.67;;
55254;SDS011;41118;44.634;11.182;2023-09-19T07:50:40;17.65;;;2.40;;
55254;SDS011;41118;44.634;11.182;2023-09-19T07:53:08;18.50;;;2.97;;
55254;SDS011;41118;44.634;11.182;2023-09-19T07:55:35;9.15;;;3.10;;
55254;SDS011;41118;44.634;11.182;2023-09-19T07:58:01;8.10;;;2.03;;
55254;SDS011;41118;44.634;11.182;2023-09-19T08:00:29;8.13;;;1.92;;
55254;SDS011;41118;44.634;11.182;2023-09-19T08:02:55;20.25;;;1.50;;
55254;SDS011;41118;44.634;11.182;2023-09-19T08:05:22;6.82;;;3.30;;
55254;SDS011;41118;44.634;11.182;2023-09-19T08:07:48;7.60;;;1.63;;
55254;SDS011;41118;44.634;11.182;2023-09-19T08:10:15;14.75;;;2.00;;
55254;SDS011;41118;44.634;11.182;2023-09-19T08:12:44;9.40;;;0.77;;
55254;SDS011;41118;44.634;11.182;2023-09-19T08:17:40;17.35;;;2.47;;
55254;SDS011;41118;44.634;11.182;2023-09-19T08:20:06;10.05;;;1.17;;
55254;SDS011;41118;44.634;11.182;2023-09-19T08:22:32;11.43;;;2.25;;
55254;SDS011;41118;44.634;11.182;2023-09-19T08:24:59;9.98;;;1.23;;
55254;SDS011;41118;44.634;11.182;2023-09-19T08:27:29;10.90;;;0.73;;
55254;SDS011;41118;44.634;11.182;2023-09-19T08:29:55;13.80;;;1.27;;
55254;SDS011;41118;44.634;11.182;2023-09-19T08:32:22;13.60;;;2.75;;
55254;SDS011;41118;44.634;11.182;2023-09-19T08:34:50;12.80;;;2.25;;
55254;SDS011;41118;44.634;11.182;2023-09-19T08:37:16;10.50;;;2.28;;
55254;SDS011;41118;44.634;11.182;2023-09-19T08:39:43;9.43;;;1.15;;
55254;SDS011;41118;44.634;11.182;2023-09-19T08:42:10;14.00;;;2.10;;
55254;SDS011;41118;44.634;11.182;2023-09-19T08:44:39;11.52;;;1.10;;
55254;SDS011;41118;44.634;11.182;2023-09-19T08:47:11;9.43;;;1.77;;
55254;SDS011;41118;44.634;11.182;2023-09-19T08:52:28;9.32;;;1.83;;
55254;SDS011;41118;44.634;11.182;2023-09-19T08:54:58;8.80;;;1.63;;
55254;SDS011;41118;44.634;11.182;2023-09-19T08:57:35;10.43;;;1.10;;
55254;SDS011;41118;44.634;11.182;2023-09-19T09:00:06;7.90;;;1.58;;
55254;SDS011;41118;44.634;11.182;2023-09-19T09:02:37;10.20;;;0.80;;
55254;SDS011;41118;44.634;11.182;2023-09-19T09:05:10;7.10;;;1.02;;
55254;SDS011;41118;44.634;11.182;2023-09-19T09:07:37;4.75;;;0.55;;
55254;SDS011;41118;44.634;11.182;2023-09-19T09:10:04;8.02;;;0.82;;
55254;SDS011;41118;44.634;11.182;2023-09-19T09:12:30;8.40;;;0.73;;
55254;SDS011;41118;44.634;11.182;2023-09-19T09:14:57;11.38;;;0.70;;
55254;SDS011;41118;44.634;11.182;2023-09-19T09:17:23;9.48;;;0.77;;
55254;SDS011;41118;44.634;11.182;2023-09-19T09:19:52;6.55;;;1.60;;
55254;SDS011;41118;44.634;11.182;2023-09-19T09:22:18;14.05;;;0.60;;
55254;SDS011;41118;44.634;11.182;2023-09-19T09:24:56;4.38;;;0.65;;
55254;SDS011;41118;44.634;11.182;2023-09-19T09:27:23;10.15;;;0.55;;
55254;SDS011;41118;44.634;11.182;2023-09-19T09:29:50;7.07;;;1.23;;
55254;SDS011;41118;44.634;11.182;2023-09-19T09:32:23;7.03;;;0.50;;
55254;SDS011;41118;44.634;11.182;2023-09-19T09:34:54;4.82;;;0.40;;
55254;SDS011;41118;44.634;11.182;2023-09-19T09:37:21;5.25;;;0.73;;
55254;SDS011;41118;44.634;11.182;2023-09-19T09:39:57;8.40;;;1.02;;
55254;SDS011;41118;44.634;11.182;2023-09-19T09:42:30;6.28;;;0.93;;
55254;SDS011;41118;44.634;11.182;2023-09-19T09:45:13;13.13;;;0.88;;
55254;SDS011;41118;44.634;11.182;2023-09-19T09:50:22;6.90;;;0.80;;
55254;SDS011;41118;44.634;11.182;2023-09-19T09:52:54;4.43;;;0.57;;
55254;SDS011;41118;44.634;11.182;2023-09-19T09:55:25;8.32;;;0.50;;
55254;SDS011;41118;44.634;11.182;2023-09-19T10:00:51;5.72;;;0.40;;
55254;SDS011;41118;44.634;11.182;2023-09-19T10:03:23;10.32;;;0.50;;
55254;SDS011;41118;44.634;11.182;2023-09-19T10:05:57;8.27;;;0.55;;
55254;SDS011;41118;44.634;11.182;2023-09-19T10:08:23;2.72;;;0.60;;
55254;SDS011;41118;44.634;11.182;2023-09-19T10:10:51;11.60;;;0.73;;
55254;SDS011;41118;44.634;11.182;2023-09-19T10:13:29;5.57;;;0.30;;
55254;SDS011;41118;44.634;11.182;2023-09-19T10:15:56;7.75;;;0.40;;
55254;SDS011;41118;44.634;11.182;2023-09-19T10:18:26;1.58;;;0.30;;
55254;SDS011;41118;44.634;11.182;2023-09-19T10:20:54;7.53;;;0.70;;
55254;SDS011;41118;44.634;11.182;2023-09-19T10:23:21;8.73;;;1.45;;
55254;SDS011;41118;44.634;11.182;2023-09-19T10:25:52;6.30;;;0.60;;
55254;SDS011;41118;44.634;11.182;2023-09-19T10:28:19;3.88;;;0.32;;
55254;SDS011;41118;44.634;11.182;2023-09-19T10:30:49;3.70;;;0.30;;
55254;SDS011;41118;44.634;11.182;2023-09-19T10:33:16;4.65;;;0.30;;
55254;SDS011;41118;44.634;11.182;2023-09-19T10:35:46;2.17;;;0.30;;
55254;SDS011;41118;44.634;11.182;2023-09-19T10:38:13;3.88;;;0.30;;
55254;SDS011;41118;44.634;11.182;2023-09-19T10:40:40;7.50;;;0.50;;
55254;SDS011;41118;44.634;11.182;2023-09-19T10:43:11;9.02;;;0.70;;
55254;SDS011;41118;44.634;11.182;2023-09-19T10:45:38;7.38;;;0.70;;
55254;SDS011;41118;44.634;11.182;2023-09-19T10:48:04;8.85;;;0.50;;
55254;SDS011;41118;44.634;11.182;2023-09-19T10:50:43;8.60;;;0.30;;
55254;SDS011;41118;44.634;11.182;2023-09-19T10:53:10;7.75;;;0.30;;
55254;SDS011;41118;44.634;11.182;2023-09-19T10:55:37;3.85;;;0.40;;
55254;SDS011;41118;44.634;11.182;2023-09-19T10:58:03;6.32;;;0.38;;
55254;SDS011;41118;44.634;11.182;2023-09-19T11:03:18;11.15;;;0.50;;
55254;SDS011;41118;44.634;11.182;2023-09-19T11:06:02;7.43;;;0.30;;
55254;SDS011;41118;44.634;11.182;2023-09-19T11:11:50;2.33;;;0.30;;
55254;SDS011;41118;44.634;11.182;2023-09-19T11:22:21;8.82;;;0.75;;
55254;SDS011;41118;44.634;11.182;2023-09-19T11:24:48;6.97;;;0.30;;
55254;SDS011;41118;44.634;11.182;2023-09-19T11:27:16;3.45;;;0.25;;
55254;SDS011;41118;44.634;11.182;2023-09-19T11:29:43;6.15;;;0.40;;
55254;SDS011;41118;44.634;11.182;2023-09-19T11:32:09;5.38;;;0.30;;
55254;SDS011;41118;44.634;11.182;2023-09-19T11:34:39;10.10;;;0.50;;
55254;SDS011;41118;44.634;11.182;2023-09-19T11:47:55;4.13;;;0.30;;
55254;SDS011;41118;44.634;11.182;2023-09-19T11:50:23;4.45;;;0.20;;
55254;SDS011;41118;44.634;11.182;2023-09-19T11:52:50;1.63;;;0.30;;
55254;SDS011;41118;44.634;11.182;2023-09-19T11:55:17;4.25;;;0.20;;
55254;SDS011;41118;44.634;11.182;2023-09-19T11:57:47;4.78;;;0.30;;
55254;SDS011;41118;44.634;11.182;2023-09-19T12:00:19;5.40;;;0.70;;
55254;SDS011;41118;44.634;11.182;2023-09-19T12:02:46;3.38;;;0.32;;
55254;SDS011;41118;44.634;11.182;2023-09-19T12:05:13;1.33;;;0.30;;
55254;SDS011;41118;44.634;11.182;2023-09-19T12:07:43;7.22;;;0.40;;
55254;SDS011;41118;44.634;11.182;2023-09-19T12:10:11;3.17;;;0.30;;
55254;SDS011;41118;44.634;11.182;2023-09-19T12:12:44;4.10;;;0.30;;
55254;SDS011;41118;44.634;11.182;2023-09-19T12:15:13;3.17;;;0.30;;
55254;SDS011;41118;44.634;11.182;2023-09-19T12:17:39;2.72;;;0.30;;
55254;SDS011;41118;44.634;11.182;2023-09-19T12:20:07;5.88;;;0.20;;
55254;SDS011;41118;44.634;11.182;2023-09-19T12:25:09;3.40;;;0.20;;
55254;SDS011;41118;44.634;11.182;2023-09-19T12:30:09;10.50;;;0.68;;
55254;SDS011;41118;44.634;11.182;2023-09-19T12:32:35;3.95;;;0.20;;
55254;SDS011;41118;44.634;11.182;2023-09-19T12:35:03;14.90;;;0.30;;
55254;SDS011;41118;44.634;11.182;2023-09-19T12:37:35;4.93;;;0.30;;
55254;SDS011;41118;44.634;11.182;2023-09-19T12:40:05;4.85;;;0.30;;
55254;SDS011;41118;44.634;11.182;2023-09-19T12:42:42;8.02;;;0.20;;
55254;SDS011;41118;44.634;11.182;2023-09-19T12:45:09;4.63;;;0.30;;
55254;SDS011;41118;44.634;11.182;2023-09-19T12:47:35;2.50;;;0.80;;
55254;SDS011;41118;44.634;11.182;2023-09-19T12:50:05;2.45;;;1.05;;
55254;SDS011;41118;44.634;11.182;2023-09-19T12:52:37;5.07;;;0.22;;
55254;SDS011;41118;44.634;11.182;2023-09-19T12:55:04;2.50;;;0.17;;
55254;SDS011;41118;44.634;11.182;2023-09-19T12:57:32;6.07;;;0.17;;
55254;SDS011;41118;44.634;11.182;2023-09-19T13:00:00;1.08;;;0.20;;
55254;SDS011;41118;44.634;11.182;2023-09-19T13:02:27;9.93;;;0.32;;
55254;SDS011;41118;44.634;11.182;2023-09-19T13:04:53;2.20;;;0.30;;
55254;SDS011;41118;44.634;11.182;2023-09-19T13:07:40;4.57;;;0.20;;
55254;SDS011;41118;44.634;11.182;2023-09-19T13:10:09;2.08;;;0.30;;
55254;SDS011;41118;44.634;11.182;2023-09-19T13:12:35;2.35;;;0.20;;
55254;SDS011;41118;44.634;11.182;2023-09-19T13:15:09;1.55;;;0.30;;
55254;SDS011;41118;44.634;11.182;2023-09-19T13:17:42;2.80;;;0.55;;
55254;SDS011;41118;44.634;11.182;2023-09-19T13:20:20;3.72;;;0.30;;
55254;SDS011;41118;44.634;11.182;2023-09-19T13:22:49;5.00;;;0.20;;
55254;SDS011;41118;44.634;11.182;2023-09-19T13:25:20;3.08;;;0.30;;
55254;SDS011;41118;44.634;11.182;2023-09-19T13:27:47;2.35;;;0.20;;
55254;SDS011;41118;44.634;11.182;2023-09-19T13:30:16;2.28;;;0.30;;
55254;SDS011;41118;44.634;11.182;2023-09-19T13:32:49;4.10;;;0.20;;
55254;SDS011;41118;44.634;11.182;2023-09-19T13:35:15;5.70;;;0.60;;
55254;SDS011;41118;44.634;11.182;2023-09-19T13:37:42;2.00;;;0.40;;
55254;SDS011;41118;44.634;11.182;2023-09-19T13:40:12;1.27;;;0.13;;
55254;SDS011;41118;44.634;11.182;2023-09-19T13:42:38;2.00;;;0.20;;
55254;SDS011;41118;44.634;11.182;2023-09-19T13:45:05;1.13;;;0.20;;
55254;SDS011;41118;44.634;11.182;2023-09-19T13:47:31;3.72;;;0.35;;
55254;SDS011;41118;44.634;11.182;2023-09-19T13:49:58;6.18;;;0.30;;
55254;SDS011;41118;44.634;11.182;2023-09-19T13:52:25;4.57;;;0.22;;
55254;SDS011;41118;44.634;11.182;2023-09-19T13:54:53;3.15;;;0.20;;
55254;SDS011;41118;44.634;11.182;2023-09-19T13:57:22;4.00;;;0.20;;
55254;SDS011;41118;44.634;11.182;2023-09-19T13:59:48;5.43;;;0.75;;
55254;SDS011;41118;44.634;11.182;2023-09-19T14:02:14;0.80;;;0.20;;
55254;SDS011;41118;44.634;11.182;2023-09-19T14:04:43;3.80;;;0.20;;
55254;SDS011;41118;44.634;11.182;2023-09-19T14:07:09;4.97;;;0.93;;
55254;SDS011;41118;44.634;11.182;2023-09-19T14:09:36;3.42;;;0.50;;
55254;SDS011;41118;44.634;11.182;2023-09-19T14:12:02;2.55;;;0.15;;
55254;SDS011;41118;44.634;11.182;2023-09-19T14:14:35;4.35;;;0.30;;
55254;SDS011;41118;44.634;11.182;2023-09-19T14:17:02;5.35;;;0.40;;
55254;SDS011;41118;44.634;11.182;2023-09-19T14:19:28;2.00;;;0.20;;
55254;SDS011;41118;44.634;11.182;2023-09-19T14:21:54;2.53;;;0.20;;
55254;SDS011;41118;44.634;11.182;2023-09-19T14:24:24;6.13;;;0.30;;
55254;SDS011;41118;44.634;11.182;2023-09-19T14:26:50;3.63;;;0.30;;
55254;SDS011;41118;44.634;11.182;2023-09-19T14:29:16;5.88;;;0.28;;
55254;SDS011;41118;44.634;11.182;2023-09-19T14:31:42;2.38;;;0.30;;
55254;SDS011;41118;44.634;11.182;2023-09-19T14:34:09;1.58;;;0.20;;
55254;SDS011;41118;44.634;11.182;2023-09-19T14:36:35;2.72;;;0.60;;
55254;SDS011;41118;44.634;11.182;2023-09-19T14:39:01;2.80;;;0.28;;
55254;SDS011;41118;44.634;11.182;2023-09-19T14:41:28;2.22;;;0.20;;
55254;SDS011;41118;44.634;11.182;2023-09-19T14:43:56;5.97;;;0.20;;
55254;SDS011;41118;44.634;11.182;2023-09-19T14:46:22;6.85;;;0.20;;
55254;SDS011;41118;44.634;11.182;2023-09-19T14:48:50;5.63;;;0.30;;
55254;SDS011;41118;44.634;11.182;2023-09-19T14:51:16;4.05;;;0.35;;
55254;SDS011;41118;44.634;11.182;2023-09-19T14:53:44;6.38;;;0.20;;
55254;SDS011;41118;44.634;11.182;2023-09-19T14:56:11;3.03;;;0.20;;
55254;SDS011;41118;44.634;11.182;2023-09-19T14:58:38;2.17;;;0.30;;
55254;SDS011;41118;44.634;11.182;2023-09-19T15:01:05;9.23;;;0.55;;
55254;SDS011;41118;44.634;11.182;2023-09-19T15:03:34;3.42;;;0.30;;
55254;SDS011;41118;44.634;11.182;2023-09-19T15:06:05;1.33;;;0.20;;
55254;SDS011;41118;44.634;11.182;2023-09-19T15:08:31;6.60;;;0.20;;
55254;SDS011;41118;44.634;11.182;2023-09-19T15:10:59;6.13;;;0.93;;
55254;SDS011;41118;44.634;11.182;2023-09-19T15:13:29;7.03;;;0.30;;
55254;SDS011;41118;44.634;11.182;2023-09-19T15:16:01;5.75;;;0.35;;
55254;SDS011;41118;44.634;11.182;2023-09-19T15:18:28;6.30;;;0.20;;
55254;SDS011;41118;44.634;11.182;2023-09-19T15:21:02;3.13;;;0.30;;
55254;SDS011;41118;44.634;11.182;2023-09-19T15:23:29;5.35;;;0.20;;
55254;SDS011;41118;44.634;11.182;2023-09-19T15:25:56;2.53;;;0.20;;
55254;SDS011;41118;44.634;11.182;2023-09-19T15:28:22;3.13;;;0.30;;
55254;SDS011;41118;44.634;11.182;2023-09-19T15:30:57;4.82;;;0.60;;
55254;SDS011;41118;44.634;11.182;2023-09-19T15:33:23;4.45;;;0.25;;
55254;SDS011;41118;44.634;11.182;2023-09-19T15:35:49;4.55;;;0.60;;